createdAt,value
2018-09-03T00:00:08.630Z,49.70
2018-09-03T00:02:38.516Z,49.70
2018-09-03T00:05:08.365Z,49.80
2018-09-03T00:07:38.355Z,50.10
2018-09-03T00:10:08.224Z,49.80
2018-09-03T00:12:38.107Z,49.80
2018-09-03T00:15:07.980Z,49.90
2018-09-03T00:17:37.843Z,49.90
2018-09-03T00:20:07.738Z,50.00
2018-09-03T00:22:37.591Z,50.20
2018-09-03T00:25:08.338Z,50.00
2018-09-03T00:27:39.398Z,50.10
2018-09-03T00:30:09.380Z,50.10
2018-09-03T00:32:44.487Z,50.00
2018-09-03T00:35:19.676Z,50.00
2018-09-03T00:37:54.904Z,49.90
2018-09-03T00:40:29.996Z,49.90
2018-09-03T00:43:05.235Z,50.00
2018-09-03T00:45:40.364Z,50.00
2018-09-03T00:48:10.203Z,50.00
2018-09-03T00:50:40.058Z,50.00
2018-09-03T00:53:09.901Z,50.10
2018-09-03T00:55:39.782Z,50.20
2018-09-03T00:58:09.631Z,50.20
2018-09-03T01:00:39.498Z,50.20
2018-09-03T01:03:09.354Z,50.20
2018-09-03T01:05:39.235Z,50.20
2018-09-03T01:08:09.118Z,50.20
2018-09-03T01:10:39.001Z,50.30
2018-09-03T01:13:08.858Z,50.30
2018-09-03T01:15:38.752Z,50.20
2018-09-03T01:18:08.647Z,49.70
2018-09-03T01:20:38.521Z,50.20
2018-09-03T01:23:08.398Z,50.40
2018-09-03T01:25:38.347Z,50.40
2018-09-03T01:28:08.231Z,50.30
2018-09-03T01:30:38.106Z,50.40
2018-09-03T01:33:08.154Z,50.40
2018-09-03T01:35:38.026Z,50.40
2018-09-03T01:38:07.901Z,50.40
2018-09-03T01:40:37.779Z,50.50
2018-09-03T01:43:07.660Z,50.50
2018-09-03T01:45:37.563Z,50.60
2018-09-03T01:48:07.441Z,50.60
2018-09-03T01:50:37.333Z,50.60
2018-09-03T01:53:07.277Z,50.70
2018-09-03T01:55:37.153Z,50.70
2018-09-03T01:58:07.428Z,50.70
2018-09-03T02:00:37.310Z,50.70
2018-09-03T02:03:07.187Z,50.70
2018-09-03T02:05:37.107Z,50.70
2018-09-03T02:08:06.991Z,50.70
2018-09-03T02:10:36.948Z,50.80
2018-09-03T02:13:07.055Z,50.90
2018-09-03T02:15:36.930Z,50.80
2018-09-03T02:18:06.820Z,50.70
2018-09-03T02:20:36.721Z,50.70
2018-09-03T02:23:06.719Z,50.80
2018-09-03T02:25:36.593Z,50.90
2018-09-03T02:28:06.518Z,50.90
2018-09-03T02:30:36.427Z,50.80
2018-09-03T02:33:06.391Z,50.80
2018-09-03T02:35:36.263Z,50.80
2018-09-03T02:38:06.142Z,50.80
2018-09-03T02:40:36.071Z,50.80
2018-09-03T02:43:05.950Z,50.80
2018-09-03T02:45:35.837Z,50.90
2018-09-03T02:48:06.106Z,50.80
2018-09-03T02:50:36.059Z,50.90
2018-09-03T02:53:06.129Z,50.80
2018-09-03T02:55:35.998Z,51.50
2018-09-03T02:58:06.111Z,50.80
2018-09-03T03:00:35.991Z,50.80
2018-09-03T03:03:05.952Z,50.80
2018-09-03T03:05:35.809Z,50.80
2018-09-03T03:08:06.814Z,50.80
2018-09-03T03:10:36.677Z,50.80
2018-09-03T03:13:06.636Z,50.80
2018-09-03T03:15:36.486Z,50.80
2018-09-03T03:18:06.533Z,50.90
2018-09-03T03:20:36.435Z,50.90
2018-09-03T03:23:06.294Z,50.90
2018-09-03T03:25:36.138Z,50.90
2018-09-03T03:28:05.990Z,50.90
2018-09-03T03:30:35.851Z,51.00
2018-09-03T03:33:05.883Z,51.00
2018-09-03T03:35:35.733Z,51.00
2018-09-03T03:38:05.994Z,51.10
2018-09-03T03:40:35.836Z,51.10
2018-09-03T03:43:05.698Z,51.10
2018-09-03T03:45:35.555Z,51.20
2018-09-03T03:48:05.475Z,51.10
2018-09-03T03:50:35.336Z,51.20
2018-09-03T03:53:05.206Z,51.30
2018-09-03T03:55:35.047Z,51.20
2018-09-03T03:58:11.754Z,51.20
2018-09-03T04:00:41.605Z,51.20
2018-09-03T04:03:11.528Z,51.20
2018-09-03T04:05:41.491Z,51.20
2018-09-03T04:08:11.374Z,51.30
2018-09-03T04:10:41.254Z,51.30
2018-09-03T04:13:11.143Z,51.30
2018-09-03T04:15:41.024Z,51.40
2018-09-03T04:18:10.924Z,51.40
2018-09-03T04:20:40.778Z,51.40
2018-09-03T04:23:10.793Z,50.90
2018-09-03T04:25:40.527Z,51.50
2018-09-03T04:28:10.403Z,51.40
2018-09-03T04:30:40.292Z,51.50
2018-09-03T04:33:10.174Z,51.50
2018-09-03T04:35:40.045Z,51.50
2018-09-03T04:38:09.934Z,51.60
2018-09-03T04:40:39.824Z,51.60
2018-09-03T04:43:09.744Z,51.60
2018-09-03T04:45:39.630Z,51.60
2018-09-03T04:48:09.609Z,51.70
2018-09-03T04:50:39.366Z,51.60
2018-09-03T04:53:09.251Z,51.60
2018-09-03T04:55:39.157Z,51.50
2018-09-03T04:58:09.039Z,51.60
2018-09-03T05:00:38.912Z,51.60
2018-09-03T05:03:08.797Z,51.60
2018-09-03T05:05:38.692Z,51.60
2018-09-03T05:08:08.527Z,51.60
2018-09-03T05:10:38.361Z,51.70
2018-09-03T05:13:08.219Z,51.70
2018-09-03T05:15:38.070Z,51.70
2018-09-03T05:18:07.939Z,51.70
2018-09-03T05:20:37.781Z,51.80
2018-09-03T05:23:07.659Z,51.80
2018-09-03T05:25:37.512Z,51.80
2018-09-03T05:28:07.362Z,51.80
2018-09-03T05:30:37.227Z,51.80
2018-09-03T05:33:07.090Z,51.90
2018-09-03T05:35:36.959Z,51.90
2018-09-03T05:38:06.940Z,51.80
2018-09-03T05:40:36.795Z,51.90
2018-09-03T05:43:06.763Z,51.90
2018-09-03T05:45:36.517Z,51.90
2018-09-03T05:48:06.764Z,52.00
2018-09-03T05:50:36.668Z,52.00
2018-09-03T05:53:06.551Z,52.00
2018-09-03T05:55:36.403Z,52.00
2018-09-03T05:58:06.280Z,52.20
2018-09-03T06:00:36.132Z,52.10
2018-09-03T06:03:06.148Z,52.10
2018-09-03T06:05:36.130Z,52.00
2018-09-03T06:08:06.543Z,52.00
2018-09-03T06:10:36.443Z,52.10
2018-09-03T06:13:06.295Z,52.10
2018-09-03T06:15:36.158Z,52.10
2018-09-03T06:18:06.178Z,52.10
2018-09-03T06:20:36.079Z,52.10
2018-09-03T06:23:05.979Z,52.00
2018-09-03T06:25:35.866Z,52.10
2018-09-03T06:28:05.804Z,52.10
2018-09-03T06:30:35.699Z,52.10
2018-09-03T06:33:05.575Z,52.10
2018-09-03T06:35:35.515Z,52.10
2018-09-03T06:38:05.403Z,52.20
2018-09-03T06:40:35.283Z,52.20
2018-09-03T06:43:05.448Z,52.20
2018-09-03T06:45:35.315Z,52.00
2018-09-03T06:48:05.190Z,52.50
2018-09-03T06:50:35.255Z,52.60
2018-09-03T06:53:05.243Z,52.80
2018-09-03T06:55:35.122Z,52.70
2018-09-03T06:58:05.119Z,52.60
2018-09-03T07:00:35.055Z,52.50
2018-09-03T07:03:04.921Z,52.50
2018-09-03T07:05:34.790Z,52.60
2018-09-03T07:08:04.642Z,52.70
2018-09-03T07:10:34.535Z,52.90
2018-09-03T07:13:06.157Z,52.90
2018-09-03T07:15:36.905Z,52.90
2018-09-03T07:18:06.811Z,52.70
2018-09-03T07:20:36.710Z,52.70
2018-09-03T07:23:06.662Z,52.70
2018-09-03T07:25:36.642Z,52.70
2018-09-03T07:28:06.603Z,52.70
2018-09-03T07:30:36.496Z,52.70
2018-09-03T07:33:06.386Z,52.70
2018-09-03T07:35:36.311Z,52.80
2018-09-03T07:38:06.182Z,52.90
2018-09-03T07:40:36.067Z,53.10
2018-09-03T07:43:06.254Z,52.70
2018-09-03T07:45:36.301Z,52.60
2018-09-03T07:48:06.240Z,52.60
2018-09-03T07:50:36.074Z,52.60
2018-09-03T07:53:05.954Z,52.70
2018-09-03T07:55:35.837Z,52.60
2018-09-03T07:58:06.578Z,52.50
2018-09-03T08:00:36.464Z,52.50
2018-09-03T08:03:06.411Z,52.50
2018-09-03T08:05:36.291Z,52.40
2018-09-03T08:08:07.030Z,52.40
2018-09-03T08:10:36.923Z,52.30
2018-09-03T08:13:06.832Z,52.50
2018-09-03T08:15:36.688Z,52.50
2018-09-03T08:18:06.541Z,52.60
2018-09-03T08:20:36.399Z,52.50
2018-09-03T08:23:06.767Z,52.50
2018-09-03T08:25:36.609Z,52.50
2018-09-03T08:28:06.667Z,52.50
2018-09-03T08:30:36.532Z,52.40
2018-09-03T08:33:06.418Z,52.40
2018-09-03T08:35:36.347Z,52.50
2018-09-03T08:38:06.394Z,52.40
2018-09-03T08:40:36.254Z,52.40
2018-09-03T08:43:06.457Z,52.30
2018-09-03T08:45:36.296Z,52.40
2018-09-03T08:48:06.147Z,52.30
2018-09-03T08:50:36.011Z,52.30
2018-09-03T08:53:06.180Z,52.30
2018-09-03T08:55:36.037Z,52.20
2018-09-03T08:58:05.885Z,52.20
2018-09-03T09:00:35.750Z,52.20
2018-09-03T09:03:09.746Z,52.20
2018-09-03T09:05:39.605Z,52.10
2018-09-03T09:08:09.457Z,52.10
2018-09-03T09:10:39.315Z,52.10
2018-09-03T09:13:09.211Z,52.10
2018-09-03T09:15:39.403Z,52.10
2018-09-03T09:18:09.266Z,52.20
2018-09-03T09:20:39.117Z,52.20
2018-09-03T09:23:08.967Z,52.20
2018-09-03T09:25:38.850Z,52.20
2018-09-03T09:28:08.699Z,52.20
2018-09-03T09:30:38.546Z,52.30
2018-09-03T09:33:08.411Z,52.30
2018-09-03T09:35:38.281Z,52.40
2018-09-03T09:38:08.333Z,52.40
2018-09-03T09:40:38.687Z,52.40
2018-09-03T09:43:08.550Z,52.40
2018-09-03T09:45:38.395Z,52.40
2018-09-03T09:48:08.242Z,52.50
2018-09-03T09:50:38.107Z,52.40
2018-09-03T09:53:07.955Z,52.40
2018-09-03T09:55:37.809Z,52.40
2018-09-03T09:58:07.667Z,52.40
2018-09-03T10:00:42.645Z,52.40
2018-09-03T10:03:12.490Z,52.50
2018-09-03T10:05:42.353Z,52.50
2018-09-03T10:08:12.215Z,52.50
2018-09-03T10:10:42.082Z,52.60
2018-09-03T10:13:11.928Z,52.80
2018-09-03T10:15:41.778Z,52.90
2018-09-03T10:18:11.623Z,52.80
2018-09-03T10:20:41.492Z,52.70
2018-09-03T10:23:11.340Z,52.70
2018-09-03T10:25:41.229Z,52.50
2018-09-03T10:28:11.066Z,52.50
2018-09-03T10:30:40.924Z,52.50
2018-09-03T10:33:10.769Z,52.40
2018-09-03T10:35:40.630Z,52.60
2018-09-03T10:38:10.484Z,52.60
2018-09-03T10:40:40.338Z,52.70
2018-09-03T10:43:10.178Z,52.70
2018-09-03T10:45:46.347Z,53.00
2018-09-03T10:48:17.284Z,52.10
2018-09-03T10:50:47.182Z,52.00
2018-09-03T10:53:17.045Z,51.80
2018-09-03T10:55:46.910Z,51.60
2018-09-03T10:58:16.764Z,51.40
2018-09-03T11:00:46.612Z,51.30
2018-09-03T11:03:16.483Z,51.10
2018-09-03T11:05:46.367Z,50.90
2018-09-03T11:08:16.242Z,51.00
2018-09-03T11:10:46.136Z,50.90
2018-09-03T11:13:16.004Z,50.80
2018-09-03T11:15:45.882Z,50.70
2018-09-03T11:18:15.750Z,50.80
2018-09-03T11:20:45.650Z,50.80
2018-09-03T11:23:15.521Z,50.50
2018-09-03T11:25:45.409Z,50.60
2018-09-03T11:28:15.290Z,50.40
2018-09-03T11:30:45.187Z,50.50
2018-09-03T11:33:15.073Z,50.40
2018-09-03T11:35:44.955Z,50.50
2018-09-03T11:38:14.822Z,50.40
2018-09-03T11:40:44.765Z,50.60
2018-09-03T11:43:14.592Z,50.50
2018-09-03T11:45:44.528Z,50.30
2018-09-03T11:48:14.387Z,50.90
2018-09-03T11:50:44.265Z,50.20
2018-09-03T11:53:14.146Z,50.40
2018-09-03T11:55:44.087Z,50.00
2018-09-03T11:58:13.987Z,49.90
2018-09-03T12:00:43.863Z,50.10
2018-09-03T12:03:13.742Z,50.10
2018-09-03T12:05:43.610Z,50.00
2018-09-03T12:08:13.506Z,50.70
2018-09-03T12:10:43.352Z,50.00
2018-09-03T12:13:13.214Z,49.90
2018-09-03T12:15:46.097Z,49.70
2018-09-03T12:18:15.970Z,49.50
2018-09-03T12:20:45.892Z,49.50
2018-09-03T12:23:15.703Z,48.90
2018-09-03T12:25:45.647Z,49.20
2018-09-03T12:28:15.507Z,49.30
2018-09-03T12:30:45.367Z,49.40
2018-09-03T12:33:15.238Z,49.40
2018-09-03T12:35:45.087Z,49.30
2018-09-03T12:38:14.966Z,49.40
2018-09-03T12:40:44.822Z,49.40
2018-09-03T12:43:14.753Z,49.40
2018-09-03T12:45:49.962Z,49.30
2018-09-03T12:48:19.852Z,49.40
2018-09-03T12:50:49.726Z,49.40
2018-09-03T12:53:19.591Z,49.40
2018-09-03T12:55:49.508Z,49.50
2018-09-03T12:58:19.366Z,49.50
2018-09-03T13:00:49.221Z,49.40
2018-09-03T13:03:19.094Z,49.50
2018-09-03T13:05:49.018Z,49.60
2018-09-03T13:08:18.886Z,49.60
2018-09-03T13:10:48.762Z,49.70
2018-09-03T13:13:18.638Z,49.70
2018-09-03T13:15:48.526Z,50.40
2018-09-03T13:18:18.405Z,49.80
2018-09-03T13:20:48.278Z,49.80
2018-09-03T13:23:18.223Z,50.60
2018-09-03T13:25:48.165Z,49.90
2018-09-03T13:28:18.067Z,49.90
2018-09-03T13:30:47.975Z,49.90
2018-09-03T13:33:17.836Z,49.90
2018-09-03T13:35:48.669Z,49.80
2018-09-03T13:38:18.819Z,49.80
2018-09-03T13:40:48.747Z,50.30
2018-09-03T13:43:18.640Z,49.70
2018-09-03T13:45:48.636Z,49.90
2018-09-03T13:48:18.563Z,49.90
2018-09-03T13:50:48.437Z,49.90
2018-09-03T13:53:18.364Z,49.90
2018-09-03T13:55:48.263Z,50.00
2018-09-03T13:58:18.147Z,49.90
2018-09-03T14:00:48.022Z,49.90
2018-09-03T14:03:17.938Z,49.90
2018-09-03T14:05:48.377Z,49.90
2018-09-03T14:08:18.264Z,49.80
2018-09-03T14:10:48.150Z,49.80
2018-09-03T14:13:18.128Z,49.80
2018-09-03T14:15:48.074Z,49.80
2018-09-03T14:18:17.917Z,49.80
2018-09-03T14:20:47.811Z,49.80
2018-09-03T14:23:17.682Z,49.80
2018-09-03T14:25:47.568Z,49.80
2018-09-03T14:28:17.486Z,49.80
2018-09-03T14:30:47.378Z,49.80
2018-09-03T14:33:17.251Z,49.70
2018-09-03T14:35:47.173Z,49.70
2018-09-03T14:38:17.057Z,49.70
2018-09-03T14:40:46.922Z,49.70
2018-09-03T14:43:16.816Z,49.70
2018-09-03T14:45:46.744Z,49.70
2018-09-03T14:48:16.731Z,50.40
2018-09-03T14:50:46.619Z,50.10
2018-09-03T14:53:16.503Z,49.70
2018-09-03T14:55:46.382Z,49.60
2018-09-03T14:58:16.296Z,49.50
2018-09-03T15:00:46.199Z,49.70
2018-09-03T15:03:16.057Z,49.70
2018-09-03T15:05:45.955Z,49.70
2018-09-03T15:08:15.816Z,49.60
2018-09-03T15:10:45.710Z,49.50
2018-09-03T15:13:15.524Z,49.50
2018-09-03T15:15:45.375Z,49.80
2018-09-03T15:18:15.220Z,49.70
2018-09-03T15:20:45.079Z,49.70
2018-09-03T15:23:15.102Z,49.80
2018-09-03T15:25:44.996Z,49.80
2018-09-03T15:28:14.841Z,49.70
2018-09-03T15:30:44.761Z,49.80
2018-09-03T15:33:14.698Z,49.80
2018-09-03T15:35:44.888Z,49.80
2018-09-03T15:38:14.713Z,49.80
2018-09-03T15:40:45.063Z,50.50
2018-09-03T15:43:15.014Z,49.80
2018-09-03T15:45:45.243Z,49.80
2018-09-03T15:48:15.146Z,49.80
2018-09-03T15:50:45.006Z,49.80
2018-09-03T15:53:15.027Z,49.80
2018-09-03T15:55:44.963Z,49.70
2018-09-03T15:58:14.844Z,49.80
2018-09-03T16:00:44.711Z,50.00
2018-09-03T16:03:14.574Z,49.90
2018-09-03T16:05:44.623Z,49.90
2018-09-03T16:08:14.487Z,50.00
2018-09-03T16:10:44.358Z,50.60
2018-09-03T16:13:14.230Z,50.50
2018-09-03T16:15:44.092Z,51.50
2018-09-03T16:18:13.966Z,51.50
2018-09-03T16:20:43.829Z,51.50
2018-09-03T16:23:13.750Z,51.60
2018-09-03T16:25:43.621Z,51.60
2018-09-03T16:28:13.492Z,51.70
2018-09-03T16:30:43.351Z,51.60
2018-09-03T16:33:13.383Z,51.80
2018-09-03T16:35:43.267Z,51.80
2018-09-03T16:38:13.130Z,51.60
2018-09-03T16:40:42.987Z,51.50
2018-09-03T16:43:12.906Z,51.50
2018-09-03T16:45:42.778Z,51.50
2018-09-03T16:48:12.655Z,51.50
2018-09-03T16:50:42.629Z,51.60
2018-09-03T16:53:12.513Z,51.50
2018-09-03T16:55:42.374Z,51.50
2018-09-03T16:58:12.244Z,51.50
2018-09-03T17:00:42.098Z,51.40
2018-09-03T17:03:12.145Z,51.40
2018-09-03T17:05:42.309Z,51.70
2018-09-03T17:08:12.347Z,51.50
2018-09-03T17:10:42.078Z,51.60
2018-09-03T17:13:11.937Z,51.60
2018-09-03T17:15:41.798Z,51.80
2018-09-03T17:18:11.669Z,51.80
2018-09-03T17:20:41.539Z,51.80
2018-09-03T17:23:11.407Z,51.80
2018-09-03T17:25:41.319Z,51.70
2018-09-03T17:28:11.180Z,52.50
2018-09-03T17:30:41.438Z,51.90
2018-09-03T17:33:11.307Z,51.90
2018-09-03T17:35:41.163Z,51.80
2018-09-03T17:38:11.019Z,51.70
2018-09-03T17:40:40.984Z,51.60
2018-09-03T17:43:10.844Z,51.50
2018-09-03T17:45:40.786Z,51.50
2018-09-03T17:48:10.583Z,51.50
2018-09-03T17:50:41.296Z,51.30
2018-09-03T17:53:11.326Z,51.30
2018-09-03T17:55:41.202Z,51.30
2018-09-03T17:58:11.072Z,51.30
2018-09-03T18:00:41.083Z,51.30
2018-09-03T18:03:11.055Z,51.30
2018-09-03T18:05:40.947Z,51.20
2018-09-03T18:08:10.831Z,51.30
2018-09-03T18:10:40.670Z,51.70
2018-09-03T18:13:10.542Z,51.50
2018-09-03T18:15:40.431Z,51.90
2018-09-03T18:18:10.299Z,51.70
2018-09-03T18:20:40.770Z,51.60
2018-09-03T18:23:10.790Z,51.50
2018-09-03T18:25:40.779Z,51.50
2018-09-03T18:28:10.711Z,51.60
2018-09-03T18:30:47.226Z,52.00
2018-09-03T18:33:17.103Z,51.80
2018-09-03T18:35:46.994Z,51.90
2018-09-03T18:38:16.871Z,52.00
2018-09-03T18:40:46.716Z,52.20
2018-09-03T18:43:17.222Z,52.20
2018-09-03T18:45:47.104Z,52.20
2018-09-03T18:48:16.980Z,52.40
2018-09-03T18:50:46.905Z,52.50
2018-09-03T18:53:16.724Z,52.60
2018-09-03T18:55:46.672Z,52.70
2018-09-03T18:58:16.535Z,52.70
2018-09-03T19:00:46.439Z,52.70
2018-09-03T19:03:16.485Z,52.70
2018-09-03T19:05:46.416Z,52.70
2018-09-03T19:08:16.347Z,52.70
2018-09-03T19:10:46.272Z,53.40
2018-09-03T19:13:16.162Z,52.80
2018-09-03T19:15:46.091Z,52.70
2018-09-03T19:18:16.003Z,52.80
2018-09-03T19:20:45.927Z,52.80
2018-09-03T19:23:15.899Z,52.80
2018-09-03T19:25:45.886Z,52.90
2018-09-03T19:28:15.932Z,52.80
2018-09-03T19:30:45.862Z,53.00
2018-09-03T19:33:15.949Z,53.00
2018-09-03T19:35:46.190Z,53.30
2018-09-03T19:38:16.103Z,53.20
2018-09-03T19:40:46.042Z,53.10
2018-09-03T19:43:16.434Z,53.10
2018-09-03T19:45:46.342Z,53.10
2018-09-03T19:48:16.262Z,53.10
2018-09-03T19:50:46.179Z,53.00
2018-09-03T19:53:16.082Z,53.00
2018-09-03T19:55:46.100Z,53.70
2018-09-03T19:58:15.962Z,53.00
2018-09-03T20:00:52.691Z,52.90
2018-09-03T20:03:22.599Z,53.10
2018-09-03T20:05:52.601Z,52.90
2018-09-03T20:08:22.510Z,53.00
2018-09-03T20:10:52.567Z,53.10
2018-09-03T20:13:22.854Z,53.20
2018-09-03T20:15:53.357Z,53.40
2018-09-03T20:18:23.390Z,53.20
2018-09-03T20:20:53.715Z,53.30
2018-09-03T20:23:23.861Z,53.30
2018-09-03T20:25:55.095Z,53.30
2018-09-03T20:28:25.452Z,53.40
2018-09-03T20:30:55.490Z,53.40
2018-09-03T20:33:25.482Z,53.50
2018-09-03T20:35:55.416Z,53.50
2018-09-03T20:38:25.376Z,53.50
2018-09-03T20:40:55.291Z,53.50
2018-09-03T20:43:25.190Z,53.40
2018-09-03T20:45:55.096Z,53.40
2018-09-03T20:48:24.996Z,53.40
2018-09-03T20:50:54.975Z,53.40
2018-09-03T20:53:24.870Z,53.40
2018-09-03T20:55:54.783Z,54.00
2018-09-03T20:58:24.708Z,53.40
2018-09-03T21:00:54.632Z,53.40
2018-09-03T21:03:24.526Z,53.40
2018-09-03T21:05:54.455Z,53.40
2018-09-03T21:08:24.463Z,53.50
2018-09-03T21:10:54.296Z,53.50
2018-09-03T21:13:24.198Z,53.50
2018-09-03T21:15:54.116Z,53.40
2018-09-03T21:18:24.014Z,53.40
2018-09-03T21:20:53.918Z,53.40
2018-09-03T21:23:23.810Z,53.40
2018-09-03T21:25:53.771Z,53.40
2018-09-03T21:28:23.678Z,53.50
2018-09-03T21:30:53.590Z,53.60
2018-09-03T21:33:23.500Z,53.60
2018-09-03T21:35:53.427Z,53.60
2018-09-03T21:38:23.326Z,53.60
2018-09-03T21:40:53.239Z,53.60
2018-09-03T21:43:23.141Z,53.70
2018-09-03T21:45:55.908Z,53.70
2018-09-03T21:48:25.814Z,53.70
2018-09-03T21:50:55.722Z,53.70
2018-09-03T21:53:25.625Z,53.70
2018-09-03T21:55:56.059Z,53.70
2018-09-03T21:58:27.201Z,53.80
2018-09-03T22:00:57.091Z,53.70
2018-09-03T22:03:27.511Z,53.80
2018-09-03T22:05:57.754Z,53.70
2018-09-03T22:08:27.637Z,53.80
2018-09-03T22:10:57.474Z,53.90
2018-09-03T22:13:27.356Z,53.90
2018-09-03T22:15:57.208Z,53.90
2018-09-03T22:18:27.065Z,54.00
2018-09-03T22:20:56.934Z,54.00
2018-09-03T22:23:26.862Z,54.00
2018-09-03T22:25:56.724Z,54.10
2018-09-03T22:28:26.587Z,54.10
2018-09-03T22:30:56.462Z,54.10
2018-09-03T22:33:26.410Z,54.10
2018-09-03T22:35:56.301Z,54.10
2018-09-03T22:38:26.521Z,54.10
2018-09-03T22:40:56.456Z,54.10
2018-09-03T22:43:26.338Z,54.10
2018-09-03T22:45:56.198Z,54.10
2018-09-03T22:48:26.068Z,54.10
2018-09-03T22:50:55.986Z,54.10
2018-09-03T22:53:26.472Z,54.20
2018-09-03T22:55:56.326Z,54.20
2018-09-03T22:58:32.791Z,54.10
2018-09-03T23:01:02.651Z,54.20
2018-09-03T23:03:32.513Z,54.10
2018-09-03T23:06:02.395Z,54.10
2018-09-03T23:08:32.267Z,54.10
2018-09-03T23:11:02.196Z,54.10
2018-09-03T23:13:32.031Z,54.10
2018-09-03T23:16:01.878Z,54.10
2018-09-03T23:18:31.747Z,54.10
2018-09-03T23:21:01.606Z,54.10
2018-09-03T23:23:31.478Z,54.10
2018-09-03T23:26:01.342Z,54.10
2018-09-03T23:28:31.211Z,54.00
2018-09-03T23:31:01.071Z,54.00
2018-09-03T23:33:31.534Z,54.00
2018-09-03T23:36:01.399Z,53.90
2018-09-03T23:38:31.278Z,54.00
2018-09-03T23:41:01.135Z,53.90
2018-09-03T23:43:31.054Z,54.00
2018-09-03T23:46:00.919Z,54.00
2018-09-03T23:48:30.785Z,54.00
2018-09-03T23:51:00.652Z,54.00
2018-09-03T23:53:30.515Z,54.00
2018-09-03T23:56:00.403Z,53.90
2018-09-03T23:58:30.280Z,54.00
